Skip Navigation LinksHome page > Weather > Current weather Skip Navigation Links

Current Weather

Ben-Gurion Intl Apt, Tel Aviv, Israel

For information only: do not use for flight planning or navigation.
Latest weather
Observation time Saturday, September 5, 2015 4:50 PM IDT
Local time Saturday, September 5, 2015 5:12 PM IDT
Flight conditions Visual Meteorological Conditions
Winds
Wind direction North-Northwest (330°)
Winds variable from 290° to 350°
Wind speed 12 mph
Visibility 6.2 mi.
Sky condition
Ceiling unlimited
Cloud layer few clouds 3,500 ft.
Temperature 86°F
Dewpoint 68°F
Altimeter 29.85 in.Hg
Derived measurements
Relative humidity 55%
Heat index 89°F
Density altitude 2272 ft.
Remarks
No significant changes expected in the next two hours.
METAR LLBG 051350Z 33010KT 290V350 9999 FEW035 30/20 Q1011 NOSIG

Settings

Location code

InnerDrive.Weather 4.0.5722.1 Release CLR 4.0.30319.34014
Copyright ©2015 Inner Drive Technology. All rights reserved. Portions Copyright ©1986-2015 David Braverman.

Find weather

Site navigation


Skip Navigation Links

Place info

Page info

PayPal - The safer, easier way to pay online!

Return home.

Copyright ©2015 Inner Drive Technology. Purveyors of fine, hand-crafted computer software. Page printed 2015-09-05T14:12:07 UTC.